Time;durP1;ratioP1;P1;durP2;ratioP2;P2;SDS_P1;SDS_P2;PMS_P1;PMS_P2;Temp;Humidity;BMP_temperature;BMP_pressure;BME280_temperature;BME280_humidity;BME280_pressure;Samples;Min_cycle;Max_cycle;Signal;HPM_P1;HPM_P2
2022/02/24 00:01:08;;;;;;;48.67;6.97;;;;;;;;;;5082602;28;20048;-76
2022/02/24 00:03:34;;;;;;;44.78;6.63;;;;;;;;;;5082644;28;20044;-75
2022/02/24 00:06:07;;;;;;;45.85;6.43;;;;;;;;;;5083597;28;20134;-75
2022/02/24 00:08:34;;;;;;;46.58;7.10;;;;;;;;;;5082261;28;20219;-76
2022/02/24 00:11:02;;;;;;;51.08;7.05;;;;;;;;;;5079867;28;20102;-74
2022/02/24 00:13:29;;;;;;;48.35;5.57;;;;;;;;;;5081769;28;20044;-75
2022/02/24 00:15:56;;;;;;;39.72;6.25;;;;;;;;;;5080048;28;20134;-75
2022/02/24 00:18:22;;;;;;;43.03;6.15;;;;;;;;;;5080340;28;20044;-74
2022/02/24 00:20:49;;;;;;;41.27;5.13;;;;;;;;;;5082113;28;20483;-75
2022/02/24 00:23:15;;;;;;;47.95;7.20;;;;;;;;;;5083396;28;20052;-74
2022/02/24 00:25:42;;;;;;;39.75;6.13;;;;;;;;;;5080460;28;20086;-75
2022/02/24 00:28:15;;;;;;;45.40;6.65;;;;;;;;;;5083730;28;20134;-74
2022/02/24 00:30:42;;;;;;;45.13;6.53;;;;;;;;;;5082357;28;20154;-74
2022/02/24 00:33:08;;;;;;;49.92;6.50;;;;;;;;;;5082535;28;20470;-74
2022/02/24 00:35:41;;;;;;;57.97;6.22;;;;;;;;;;5079818;28;20186;-75
2022/02/24 00:38:08;;;;;;;45.22;6.60;;;;;;;;;;5082988;28;20106;-74
2022/02/24 00:40:35;;;;;;;36.90;5.88;;;;;;;;;;5081442;28;20153;-75
2022/02/24 00:43:01;;;;;;;27.13;4.87;;;;;;;;;;5081453;28;20159;-74
2022/02/24 00:45:28;;;;;;;41.33;5.85;;;;;;;;;;5083561;28;20136;-74
2022/02/24 00:47:54;;;;;;;51.40;7.40;;;;;;;;;;5080587;28;20362;-74
2022/02/24 00:50:21;;;;;;;42.58;7.15;;;;;;;;;;5082836;28;20048;-75
2022/02/24 00:52:47;;;;;;;43.63;6.18;;;;;;;;;;5080906;28;20514;-75
2022/02/24 00:55:13;;;;;;;44.42;6.47;;;;;;;;;;5083293;28;20138;-75
2022/02/24 00:57:46;;;;;;;47.38;5.88;;;;;;;;;;5081269;28;20084;-75
2022/02/24 01:00:14;;;;;;;40.50;6.40;;;;;;;;;;5080250;28;20058;-75
2022/02/24 01:02:40;;;;;;;41.88;6.70;;;;;;;;;;5080000;28;20135;-75
2022/02/24 01:05:07;;;;;;;48.80;7.33;;;;;;;;;;5082236;28;20048;-75
2022/02/24 01:07:34;;;;;;;41.43;6.00;;;;;;;;;;5080054;28;20075;-75
2022/02/24 01:10:00;;;;;;;40.30;5.72;;;;;;;;;;5083160;28;20389;-76
2022/02/24 01:12:27;;;;;;;32.88;6.07;;;;;;;;;;5082969;28;20109;-76
2022/02/24 01:14:53;;;;;;;46.33;6.20;;;;;;;;;;5083417;28;20139;-75
2022/02/24 01:17:21;;;;;;;45.90;7.00;;;;;;;;;;5083062;28;20457;-75
2022/02/24 01:19:48;;;;;;;36.87;6.00;;;;;;;;;;5077178;28;20471;-75
2022/02/24 01:22:16;;;;;;;38.90;5.67;;;;;;;;;;5081079;28;20384;-75
2022/02/24 01:24:42;;;;;;;28.70;5.28;;;;;;;;;;5082571;28;20440;-75
2022/02/24 01:27:17;;;;;;;38.88;6.65;;;;;;;;;;5082120;28;20041;-76
2022/02/24 01:29:43;;;;;;;41.08;6.70;;;;;;;;;;5084425;28;20128;-75
2022/02/24 01:32:09;;;;;;;46.47;6.15;;;;;;;;;;5082467;28;20048;-75
2022/02/24 01:34:42;;;;;;;38.40;6.80;;;;;;;;;;5080338;28;20131;-75
2022/02/24 01:37:09;;;;;;;36.70;6.90;;;;;;;;;;5079294;28;20155;-75
2022/02/24 01:39:36;;;;;;;27.92;5.88;;;;;;;;;;5079384;28;20044;-75
2022/02/24 01:42:05;;;;;;;42.85;5.68;;;;;;;;;;5081305;28;20464;-74
2022/02/24 01:44:40;;;;;;;42.33;6.30;;;;;;;;;;5081210;28;20161;-73
2022/02/24 01:47:08;;;;;;;26.63;5.13;;;;;;;;;;5079356;28;20114;-75
2022/02/24 01:49:34;;;;;;;37.50;5.37;;;;;;;;;;5081519;28;20131;-74
2022/02/24 01:52:03;;;;;;;53.03;7.20;;;;;;;;;;5081904;28;20054;-75
2022/02/24 01:54:33;;;;;;;32.42;5.65;;;;;;;;;;5082137;28;20087;-75
2022/02/24 01:57:00;;;;;;;40.63;5.88;;;;;;;;;;5079165;28;20048;-74
2022/02/24 01:59:29;;;;;;;27.00;4.68;;;;;;;;;;5084202;28;20053;-75
2022/02/24 02:01:56;;;;;;;38.05;5.38;;;;;;;;;;5084966;28;20126;-75
2022/02/24 02:04:23;;;;;;;34.90;5.53;;;;;;;;;;5084069;28;20048;-74
2022/02/24 02:06:50;;;;;;;43.25;6.22;;;;;;;;;;5084905;28;20066;-75
2022/02/24 02:09:23;;;;;;;40.40;7.05;;;;;;;;;;5085149;28;20048;-74
2022/02/24 02:11:49;;;;;;;40.53;7.00;;;;;;;;;;5085902;28;20128;-74
2022/02/24 02:14:16;;;;;;;40.63;6.75;;;;;;;;;;5085629;28;20136;-74
2022/02/24 02:16:50;;;;;;;43.60;7.05;;;;;;;;;;5084957;28;20044;-73
2022/02/24 02:19:17;;;;;;;;;;;;;;;;;;5084908;28;20415;-73
2022/02/24 02:21:44;;;;;;;37.50;6.28;;;;;;;;;;5083585;28;19977;-74
2022/02/24 02:24:13;;;;;;;37.65;5.22;;;;;;;;;;5076801;28;20483;-73
2022/02/24 02:26:39;;;;;;;45.10;6.25;;;;;;;;;;5081753;28;20075;-73
2022/02/24 02:29:08;;;;;;;32.57;5.93;;;;;;;;;;5082926;28;20072;-73
2022/02/24 02:31:38;;;;;;;42.78;5.45;;;;;;;;;;5081464;28;20393;-73
2022/02/24 02:34:07;;;;;;;46.80;6.07;;;;;;;;;;5082019;28;20204;-73
2022/02/24 02:36:34;;;;;;;31.20;5.35;;;;;;;;;;5071239;28;20326;-72
2022/02/24 02:39:11;;;;;;;43.30;6.22;;;;;;;;;;5082208;28;20072;-73
2022/02/24 02:41:44;;;;;;;35.28;6.43;;;;;;;;;;5081534;28;20040;-73
2022/02/24 02:44:18;;;;;;;30.33;5.87;;;;;;;;;;5080319;28;20048;-73
2022/02/24 02:46:46;;;;;;;32.45;6.28;;;;;;;;;;5083277;28;20794;-73
2022/02/24 02:49:12;;;;;;;53.63;6.10;;;;;;;;;;5083464;28;20129;-73
2022/02/24 02:51:39;;;;;;;37.30;6.07;;;;;;;;;;5081997;28;20099;-73
2022/02/24 02:54:06;;;;;;;38.80;6.40;;;;;;;;;;5082671;28;20076;-73
2022/02/24 02:56:33;;;;;;;50.20;6.03;;;;;;;;;;5084094;28;20102;-74
2022/02/24 02:59:00;;;;;;;40.97;6.53;;;;;;;;;;5083441;28;20097;-73
2022/02/24 03:01:27;;;;;;;42.10;5.95;;;;;;;;;;5083478;28;20131;-73
2022/02/24 03:03:54;;;;;;;46.28;6.05;;;;;;;;;;5083855;28;20433;-73
2022/02/24 03:06:22;;;;;;;46.55;5.82;;;;;;;;;;5081286;28;20471;-72
2022/02/24 03:08:49;;;;;;;41.70;6.20;;;;;;;;;;5082765;28;20499;-73
2022/02/24 03:11:15;;;;;;;35.40;6.13;;;;;;;;;;5082630;28;20052;-73
2022/02/24 03:13:48;;;;;;;31.42;4.97;;;;;;;;;;5080720;28;20044;-73
2022/02/24 03:16:15;;;;;;;41.25;5.47;;;;;;;;;;5079444;28;20090;-73
2022/02/24 03:18:41;;;;;;;40.35;6.45;;;;;;;;;;5084532;28;20071;-72
2022/02/24 03:21:08;;;;;;;36.00;6.00;;;;;;;;;;5084297;28;20156;-72
2022/02/24 03:23:39;;;;;;;38.72;5.72;;;;;;;;;;5081649;28;20713;-72
2022/02/24 03:26:05;;;;;;;37.20;4.65;;;;;;;;;;5083594;28;20047;-72
2022/02/24 03:28:38;;;;;;;32.70;4.95;;;;;;;;;;5079820;28;20577;-72
2022/02/24 03:31:05;;;;;;;49.75;6.18;;;;;;;;;;5082283;28;20048;-72
2022/02/24 03:33:32;;;;;;;41.07;6.43;;;;;;;;;;5082198;28;20592;-72
2022/02/24 03:36:04;;;;;;;47.25;6.80;;;;;;;;;;5082403;28;20562;-72
2022/02/24 03:38:31;;;;;;;53.38;6.47;;;;;;;;;;5082839;28;20048;-72
2022/02/24 03:40:57;;;;;;;45.85;6.65;;;;;;;;;;5082327;28;20075;-72
2022/02/24 03:43:24;;;;;;;45.97;6.97;;;;;;;;;;5081491;28;20046;-72
2022/02/24 03:45:51;;;;;;;56.53;6.20;;;;;;;;;;5079024;28;20095;-72
2022/02/24 03:48:18;;;;;;;44.90;5.63;;;;;;;;;;5079453;28;20156;-72
2022/02/24 03:50:44;;;;;;;50.25;5.88;;;;;;;;;;5082243;28;20123;-72
2022/02/24 03:53:11;;;;;;;39.20;5.55;;;;;;;;;;5083654;28;20052;-72
2022/02/24 03:55:37;;;;;;;51.33;6.38;;;;;;;;;;5084395;28;20131;-73
2022/02/24 03:58:10;;;;;;;31.23;5.55;;;;;;;;;;5083841;28;20079;-73
2022/02/24 04:00:37;;;;;;;39.15;5.43;;;;;;;;;;5081395;28;20052;-72
2022/02/24 04:03:03;;;;;;;40.05;4.90;;;;;;;;;;5081876;28;20040;-73
2022/02/24 04:05:37;;;;;;;30.13;5.35;;;;;;;;;;5083503;28;20109;-72
2022/02/24 04:08:03;;;;;;;22.60;3.40;;;;;;;;;;5081426;28;20516;-72
2022/02/24 04:10:30;;;;;;;21.30;3.37;;;;;;;;;;5081465;28;20075;-72
2022/02/24 04:13:05;;;;;;;38.08;5.25;;;;;;;;;;5081474;28;20638;-73
2022/02/24 04:15:32;;;;;;;40.30;5.10;;;;;;;;;;5084666;28;20062;-72
2022/02/24 04:17:58;;;;;;;34.42;5.45;;;;;;;;;;5082886;28;20135;-73
2022/02/24 04:20:26;;;;;;;40.72;5.15;;;;;;;;;;5083038;28;20166;-72
2022/02/24 04:22:52;;;;;;;28.98;5.60;;;;;;;;;;5080337;28;20070;-72
2022/02/24 04:25:19;;;;;;;31.38;4.70;;;;;;;;;;5078591;28;20094;-72
2022/02/24 04:27:47;;;;;;;24.08;3.63;;;;;;;;;;5077887;28;20419;-73
2022/02/24 04:30:14;;;;;;;27.38;4.50;;;;;;;;;;5077295;28;20450;-73
2022/02/24 04:32:41;;;;;;;26.58;4.30;;;;;;;;;;5080976;28;20043;-73
2022/02/24 04:35:14;;;;;;;17.65;3.28;;;;;;;;;;5081513;28;20551;-73
2022/02/24 04:37:40;;;;;;;14.52;2.60;;;;;;;;;;5079942;28;20044;-73
2022/02/24 04:40:07;;;;;;;19.75;2.47;;;;;;;;;;5084006;28;20048;-72
2022/02/24 04:42:37;;;;;;;18.27;2.25;;;;;;;;;;5079557;28;20056;-73
2022/02/24 04:45:04;;;;;;;15.07;2.30;;;;;;;;;;5081092;28;20048;-73
2022/02/24 04:47:31;;;;;;;16.60;3.17;;;;;;;;;;5081495;28;20558;-73
2022/02/24 04:49:58;;;;;;;7.55;1.77;;;;;;;;;;5079876;28;20360;-72
2022/02/24 04:52:24;;;;;;;9.25;1.90;;;;;;;;;;5080017;28;20113;-72
2022/02/24 04:54:51;;;;;;;14.57;2.30;;;;;;;;;;5077572;28;20132;-72
2022/02/24 04:57:23;;;;;;;8.73;1.70;;;;;;;;;;5080012;28;20041;-72
2022/02/24 04:59:50;;;;;;;7.65;1.63;;;;;;;;;;5080002;28;20066;-72
2022/02/24 05:02:17;;;;;;;8.18;1.65;;;;;;;;;;5079364;28;20040;-72
2022/02/24 05:04:44;;;;;;;10.05;2.08;;;;;;;;;;5083065;28;20412;-73
2022/02/24 05:07:11;;;;;;;10.00;2.15;;;;;;;;;;5068659;28;20056;-72
2022/02/24 05:09:39;;;;;;;7.73;1.27;;;;;;;;;;5060962;28;20052;-72
2022/02/24 05:12:06;;;;;;;8.65;1.42;;;;;;;;;;5081122;28;20777;-72
2022/02/24 05:14:33;;;;;;;12.88;2.03;;;;;;;;;;5082558;28;20103;-71
2022/02/24 05:16:59;;;;;;;7.95;0.90;;;;;;;;;;5076920;28;20098;-72
2022/02/24 05:19:33;;;;;;;3.83;0.82;;;;;;;;;;5079164;28;20105;-71
2022/02/24 05:21:59;;;;;;;5.30;1.30;;;;;;;;;;5078325;28;20048;-72
2022/02/24 05:24:26;;;;;;;4.45;1.10;;;;;;;;;;5078242;28;20113;-72
2022/02/24 05:27:00;;;;;;;4.55;1.13;;;;;;;;;;5078616;28;20052;-71
2022/02/24 05:29:26;;;;;;;5.70;1.25;;;;;;;;;;5076994;28;20074;-71
2022/02/24 05:31:52;;;;;;;10.60;1.73;;;;;;;;;;5078422;28;20048;-72
2022/02/24 05:34:26;;;;;;;4.18;1.55;;;;;;;;;;5084049;28;20491;-71
2022/02/24 05:36:55;;;;;;;20.15;2.47;;;;;;;;;;5087234;28;20048;-72
2022/02/24 05:39:22;;;;;;;15.23;2.20;;;;;;;;;;5082550;28;20091;-71
2022/02/24 05:41:51;;;;;;;10.95;2.10;;;;;;;;;;5085085;28;20055;-71
2022/02/24 05:44:17;;;;;;;9.98;1.92;;;;;;;;;;5082230;28;20446;-71
2022/02/24 05:46:44;;;;;;;13.75;1.85;;;;;;;;;;5083151;28;20056;-72
2022/02/24 05:49:14;;;;;;;9.70;1.90;;;;;;;;;;5077551;28;20041;-72
2022/02/24 05:51:41;;;;;;;9.48;1.70;;;;;;;;;;5082129;28;20513;-71
2022/02/24 05:54:08;;;;;;;8.23;1.60;;;;;;;;;;5084036;28;20557;-72
2022/02/24 05:56:37;;;;;;;7.55;1.60;;;;;;;;;;5086402;28;20052;-72
2022/02/24 05:59:04;;;;;;;12.27;2.00;;;;;;;;;;5081617;28;20520;-72
2022/02/24 06:01:30;;;;;;;13.50;1.42;;;;;;;;;;5081358;28;20052;-72
2022/02/24 06:04:04;;;;;;;11.80;1.50;;;;;;;;;;5087155;28;20035;-72
2022/02/24 06:06:30;;;;;;;10.88;2.13;;;;;;;;;;5079108;28;20086;-73
2022/02/24 06:08:56;;;;;;;10.07;1.73;;;;;;;;;;5078830;28;20682;-72
2022/02/24 06:11:24;;;;;;;9.95;2.00;;;;;;;;;;5081096;28;20068;-72
2022/02/24 06:13:50;;;;;;;5.97;1.27;;;;;;;;;;5081333;28;20068;-72
2022/02/24 06:16:17;;;;;;;7.68;1.48;;;;;;;;;;5082138;28;20415;-72
2022/02/24 06:18:46;;;;;;;5.75;1.20;;;;;;;;;;5080848;28;20125;-71
2022/02/24 06:21:16;;;;;;;8.65;1.50;;;;;;;;;;5083122;28;20127;-71
2022/02/24 06:23:43;;;;;;;9.57;1.42;;;;;;;;;;5084624;28;20114;-71
2022/02/24 06:26:16;;;;;;;16.35;2.10;;;;;;;;;;5082680;28;20076;-71
2022/02/24 06:28:43;;;;;;;6.82;1.48;;;;;;;;;;5078190;28;20075;-71
2022/02/24 06:31:10;;;;;;;9.18;1.15;;;;;;;;;;5079695;28;20139;-71
2022/02/24 06:33:37;;;;;;;5.07;1.30;;;;;;;;;;5084384;28;20578;-71
2022/02/24 06:36:03;;;;;;;7.88;1.60;;;;;;;;;;5082141;28;20127;-71
2022/02/24 06:38:30;;;;;;;11.80;0.88;;;;;;;;;;5083447;28;20114;-71
2022/02/24 06:41:02;;;;;;;4.93;1.20;;;;;;;;;;5080953;28;20080;-71
2022/02/24 06:43:29;;;;;;;9.65;1.38;;;;;;;;;;5083908;28;20071;-71
2022/02/24 06:45:58;;;;;;;7.53;0.98;;;;;;;;;;5067473;28;20059;-71
2022/02/24 06:48:27;;;;;;;7.70;1.60;;;;;;;;;;5082917;28;20058;-71
2022/02/24 06:50:53;;;;;;;11.98;1.52;;;;;;;;;;5082799;28;20147;-71
2022/02/24 06:53:20;;;;;;;6.60;1.30;;;;;;;;;;5084242;28;20105;-71
2022/02/24 06:55:47;;;;;;;9.32;1.55;;;;;;;;;;5084237;28;20134;-71
2022/02/24 06:58:13;;;;;;;6.82;1.73;;;;;;;;;;5081207;28;20048;-71
2022/02/24 07:00:40;;;;;;;5.97;1.67;;;;;;;;;;5082807;28;20139;-71
2022/02/24 07:03:08;;;;;;;5.68;1.35;;;;;;;;;;5081771;28;20046;-71
2022/02/24 07:05:34;;;;;;;6.67;1.30;;;;;;;;;;5080051;28;20056;-71
2022/02/24 07:08:03;;;;;;;7.03;1.55;;;;;;;;;;5082898;28;20067;-71
2022/02/24 07:10:36;;;;;;;7.75;1.30;;;;;;;;;;5083643;28;20135;-72
2022/02/24 07:13:04;;;;;;;3.67;1.02;;;;;;;;;;5083209;28;20051;-71
2022/02/24 07:15:31;;;;;;;7.63;1.27;;;;;;;;;;5083594;28;20135;-71
2022/02/24 07:17:59;;;;;;;3.85;0.90;;;;;;;;;;5080660;28;20079;-71
2022/02/24 07:20:25;;;;;;;3.97;1.10;;;;;;;;;;5080725;28;20128;-71
2022/02/24 07:22:51;;;;;;;6.30;1.17;;;;;;;;;;5078569;28;20072;-70
2022/02/24 07:25:18;;;;;;;3.28;1.40;;;;;;;;;;5084260;28;21329;-71
2022/02/24 07:27:45;;;;;;;2.75;0.98;;;;;;;;;;5082702;28;20552;-70
2022/02/24 07:30:12;;;;;;;6.63;1.15;;;;;;;;;;5083082;28;21769;-71
2022/02/24 07:32:39;;;;;;;9.00;1.40;;;;;;;;;;5083761;28;20146;-71
2022/02/24 07:35:06;;;;;;;6.45;1.35;;;;;;;;;;5083581;28;20055;-71
2022/02/24 07:37:32;;;;;;;7.53;1.33;;;;;;;;;;5084202;28;20146;-71
2022/02/24 07:40:06;;;;;;;5.03;0.98;;;;;;;;;;5082478;28;20410;-70
2022/02/24 07:42:34;;;;;;;4.47;1.00;;;;;;;;;;5083199;28;20060;-71
2022/02/24 07:45:01;;;;;;;3.90;1.20;;;;;;;;;;5082123;28;20295;-70
2022/02/24 07:47:28;;;;;;;;;;;;;;;;;;5082412;28;20070;-70
2022/02/24 07:49:55;;;;;;;7.13;1.75;;;;;;;;;;5084559;28;19932;-70
2022/02/24 07:52:22;;;;;;;3.42;1.10;;;;;;;;;;5082736;28;20125;-70
2022/02/24 07:54:50;;;;;;;8.68;1.20;;;;;;;;;;5079229;28;20131;-70
2022/02/24 07:57:17;;;;;;;7.80;1.20;;;;;;;;;;5076404;28;20061;-70
2022/02/24 07:59:43;;;;;;;5.25;1.13;;;;;;;;;;5080983;28;20442;-71
2022/02/24 08:02:10;;;;;;;4.10;0.68;;;;;;;;;;5080737;28;20122;-71
2022/02/24 08:04:37;;;;;;;6.22;1.20;;;;;;;;;;5079840;28;20132;-70
2022/02/24 08:07:03;;;;;;;6.32;1.60;;;;;;;;;;5077519;28;20823;-71
2022/02/24 08:09:32;;;;;;;5.15;1.20;;;;;;;;;;5080372;28;20076;-71
2022/02/24 08:14:50;;;;;;;8.68;1.85;;;;;;;;;;5080247;28;20551;-70
2022/02/24 08:17:21;;;;;;;7.20;1.20;;;;;;;;;;5079640;28;20087;-70
2022/02/24 08:19:48;;;;;;;4.05;1.40;;;;;;;;;;5078112;28;20147;-71
2022/02/24 08:22:21;;;;;;;3.53;1.20;;;;;;;;;;5076557;28;20126;-70
2022/02/24 08:24:48;;;;;;;3.25;1.13;;;;;;;;;;5078520;28;20048;-70
2022/02/24 08:27:15;;;;;;;6.50;1.02;;;;;;;;;;5079547;28;20049;-71
2022/02/24 08:29:42;;;;;;;4.13;1.63;;;;;;;;;;5077430;28;20087;-72
2022/02/24 08:32:08;;;;;;;8.27;1.42;;;;;;;;;;5068470;28;20110;-72
2022/02/24 08:34:35;;;;;;;7.72;1.42;;;;;;;;;;5075974;28;20080;-72
2022/02/24 08:37:02;;;;;;;4.28;0.90;;;;;;;;;;5070695;28;20091;-72
2022/02/24 08:39:28;;;;;;;9.20;1.20;;;;;;;;;;5077847;28;20132;-71
2022/02/24 08:41:55;;;;;;;6.00;1.30;;;;;;;;;;5079220;28;20189;-71
2022/02/24 08:44:28;;;;;;;6.43;1.40;;;;;;;;;;5078499;28;20134;-72
2022/02/24 08:47:08;;;;;;;6.88;1.23;;;;;;;;;;5079791;28;20093;-71
2022/02/24 08:49:37;;;;;;;5.20;0.90;;;;;;;;;;5057792;28;20082;-72
2022/02/24 08:52:04;;;;;;;5.50;1.05;;;;;;;;;;5081452;28;20083;-71
2022/02/24 08:54:32;;;;;;;8.60;1.15;;;;;;;;;;5077784;28;20456;-72
2022/02/24 08:56:59;;;;;;;4.05;1.15;;;;;;;;;;5061707;28;20109;-71
2022/02/24 08:59:26;;;;;;;5.88;1.27;;;;;;;;;;5078722;28;20527;-71
2022/02/24 09:01:52;;;;;;;4.65;1.23;;;;;;;;;;5079794;28;20076;-71
2022/02/24 09:04:25;;;;;;;2.40;0.85;;;;;;;;;;5080544;28;20081;-72
2022/02/24 09:06:52;;;;;;;5.82;1.10;;;;;;;;;;5076700;28;20045;-72
2022/02/24 09:09:19;;;;;;;1.00;0.70;;;;;;;;;;5079260;28;20074;-71
2022/02/24 09:11:46;;;;;;;6.95;1.75;;;;;;;;;;5078585;28;20079;-71
2022/02/24 09:14:12;;;;;;;5.13;0.85;;;;;;;;;;5079511;28;20105;-71
2022/02/24 09:16:39;;;;;;;8.55;1.00;;;;;;;;;;5078864;28;20488;-71
2022/02/24 09:19:05;;;;;;;3.57;1.03;;;;;;;;;;5077994;28;20052;-71
2022/02/24 09:21:35;;;;;;;2.55;0.75;;;;;;;;;;5077146;28;20359;-72
2022/02/24 09:24:01;;;;;;;3.85;0.85;;;;;;;;;;5077190;28;20131;-71
2022/02/24 09:26:28;;;;;;;3.88;1.27;;;;;;;;;;5074630;28;20088;-71
2022/02/24 09:28:54;;;;;;;0.68;0.60;;;;;;;;;;5081058;28;20552;-71
2022/02/24 09:31:23;;;;;;;3.45;1.05;;;;;;;;;;5078178;28;20627;-71
2022/02/24 09:33:50;;;;;;;9.68;1.30;;;;;;;;;;5075954;28;20053;-71
2022/02/24 09:36:16;;;;;;;4.18;0.90;;;;;;;;;;5077317;28;20068;-71
2022/02/24 09:38:43;;;;;;;6.32;1.00;;;;;;;;;;5076436;28;20143;-71
2022/02/24 09:41:18;;;;;;;2.65;1.02;;;;;;;;;;5076362;28;20068;-71
2022/02/24 09:43:45;;;;;;;5.30;1.08;;;;;;;;;;5079033;28;20547;-70
2022/02/24 09:46:15;;;;;;;2.63;1.30;;;;;;;;;;5078237;28;20146;-71
2022/02/24 09:48:42;;;;;;;4.82;1.13;;;;;;;;;;5079239;28;20052;-71
2022/02/24 09:51:14;;;;;;;5.85;1.13;;;;;;;;;;5076699;28;20092;-71
2022/02/24 09:53:43;;;;;;;5.68;1.10;;;;;;;;;;5076589;28;20054;-72
2022/02/24 09:56:15;;;;;;;5.60;1.08;;;;;;;;;;5064649;28;20667;-71
2022/02/24 09:58:45;;;;;;;3.92;1.10;;;;;;;;;;5079873;28;20127;-71
2022/02/24 10:01:14;;;;;;;2.67;0.80;;;;;;;;;;5077188;28;20049;-71
2022/02/24 10:03:52;;;;;;;1.90;0.73;;;;;;;;;;5075652;28;20048;-71
2022/02/24 10:06:19;;;;;;;;;;;;;;;;;;5078210;28;20045;-71
2022/02/24 10:08:47;;;;;;;7.38;1.00;;;;;;;;;;5077926;28;19923;-72
2022/02/24 10:11:13;;;;;;;;;;;;;;;;;;5078689;28;20056;-71
2022/02/24 10:13:54;;;;;;;2.25;0.82;;;;;;;;;;5078689;28;20486;-71
2022/02/24 10:16:21;;;;;;;4.63;1.27;;;;;;;;;;5079353;28;20075;-71
2022/02/24 10:18:50;;;;;;;7.25;1.10;;;;;;;;;;5078299;28;20052;-70
2022/02/24 10:21:20;;;;;;;4.85;0.95;;;;;;;;;;5086626;28;20102;-71
2022/02/24 10:23:50;;;;;;;1.30;0.55;;;;;;;;;;5081123;28;20467;-71
2022/02/24 10:26:23;;;;;;;5.97;1.10;;;;;;;;;;5084260;28;20127;-72
2022/02/24 10:29:06;;;;;;;2.75;0.93;;;;;;;;;;5083082;28;20052;-71
2022/02/24 10:31:40;;;;;;;5.07;1.05;;;;;;;;;;5080749;28;20139;-71
2022/02/24 10:34:07;;;;;;;7.05;1.27;;;;;;;;;;5080901;28;20482;-71
2022/02/24 10:36:36;;;;;;;3.50;0.90;;;;;;;;;;5086316;28;20105;-71
2022/02/24 10:39:17;;;;;;;2.05;1.00;;;;;;;;;;5079643;28;20079;-71
2022/02/24 10:41:49;;;;;;;6.63;1.20;;;;;;;;;;5083936;28;20129;-71
2022/02/24 10:44:19;;;;;;;5.15;1.33;;;;;;;;;;5079378;28;20048;-71
2022/02/24 10:47:07;;;;;;;6.10;1.80;;;;;;;;;;5079010;28;20500;-71
2022/02/24 10:49:39;;;;;;;3.42;1.10;;;;;;;;;;5078870;28;20438;-71
2022/02/24 10:52:13;;;;;;;4.20;1.10;;;;;;;;;;5079430;28;20535;-71
2022/02/24 10:54:42;;;;;;;3.33;1.05;;;;;;;;;;5079902;28;20446;-71
2022/02/24 10:57:17;;;;;;;9.10;1.00;;;;;;;;;;5082967;28;20393;-71
2022/02/24 10:59:43;;;;;;;7.00;1.15;;;;;;;;;;5081379;28;20059;-71
2022/02/24 11:02:10;;;;;;;6.32;1.30;;;;;;;;;;5082293;28;20401;-71
2022/02/24 11:04:37;;;;;;;8.48;1.42;;;;;;;;;;5084517;28;20094;-71
2022/02/24 11:07:07;;;;;;;2.97;1.17;;;;;;;;;;5080363;28;20072;-71
2022/02/24 11:09:34;;;;;;;;;;;;;;;;;;5078972;28;20512;-71
2022/02/24 11:12:02;;;;;;;6.60;1.65;;;;;;;;;;5081133;28;19924;-71
2022/02/24 11:14:36;;;;;;;2.15;0.90;;;;;;;;;;5079968;28;20052;-70
2022/02/24 11:17:08;;;;;;;6.40;1.63;;;;;;;;;;5080952;28;20557;-71
2022/02/24 11:19:36;;;;;;;9.10;1.38;;;;;;;;;;5078057;28;20039;-71
2022/02/24 11:22:06;;;;;;;6.97;1.55;;;;;;;;;;5084572;28;20079;-71
2022/02/24 11:24:33;;;;;;;11.27;2.05;;;;;;;;;;5080715;28;20079;-72
2022/02/24 11:27:21;;;;;;;6.80;1.65;;;;;;;;;;5081949;28;20048;-71
2022/02/24 11:30:15;;;;;;;11.43;1.52;;;;;;;;;;5078753;28;20899;-71
2022/02/24 11:32:45;;;;;;;6.55;1.60;;;;;;;;;;5077874;28;20506;-71
2022/02/24 11:35:14;;;;;;;4.05;1.13;;;;;;;;;;5079800;28;20810;-71
2022/02/24 11:37:47;;;;;;;9.70;1.52;;;;;;;;;;5077517;28;20419;-71
2022/02/24 11:40:14;;;;;;;7.82;1.52;;;;;;;;;;5080301;28;20488;-71
2022/02/24 11:42:41;;;;;;;7.68;1.77;;;;;;;;;;5079595;28;20101;-72
2022/02/24 11:45:33;;;;;;;7.53;1.38;;;;;;;;;;5078436;28;20106;-71
2022/02/24 11:48:02;;;;;;;8.10;1.50;;;;;;;;;;5061440;28;20056;-71
2022/02/24 11:50:30;;;;;;;10.05;1.55;;;;;;;;;;5076876;28;20087;-69
2022/02/24 11:52:56;;;;;;;;;;;;;;;;;;5077542;28;20076;-69
2022/02/24 11:55:42;;;;;;;11.23;1.30;;;;;;;;;;5079906;28;19920;-69
2022/02/24 11:58:35;;;;;;;7.57;1.52;;;;;;;;;;5079330;28;20107;-69
2022/02/24 12:01:11;;;;;;;5.18;1.40;;;;;;;;;;5052363;28;20453;-69
2022/02/24 12:03:44;;;;;;;8.98;2.00;;;;;;;;;;5080196;28;20044;-69
2022/02/24 12:06:19;;;;;;;4.68;1.20;;;;;;;;;;5082576;28;20466;-69
2022/02/24 12:09:05;;;;;;;4.30;1.60;;;;;;;;;;5078196;28;20076;-69
2022/02/24 12:11:43;;;;;;;8.95;1.90;;;;;;;;;;5077465;28;20105;-69
2022/02/24 12:14:15;;;;;;;4.82;1.42;;;;;;;;;;5078686;28;20143;-69
2022/02/24 12:17:03;;;;;;;6.60;1.50;;;;;;;;;;5081349;28;20427;-69
2022/02/24 12:19:40;;;;;;;8.82;1.73;;;;;;;;;;5062766;28;20054;-69
2022/02/24 12:22:19;;;;;;;8.50;1.98;;;;;;;;;;5080637;28;20056;-69
2022/02/24 12:24:50;;;;;;;10.65;2.47;;;;;;;;;;5082249;28;20070;-69
2022/02/24 12:27:26;;;;;;;6.65;1.80;;;;;;;;;;5083163;28;20086;-69
2022/02/24 12:29:56;;;;;;;6.82;1.55;;;;;;;;;;5076886;28;20135;-69
2022/02/24 12:32:23;;;;;;;10.32;1.90;;;;;;;;;;5075719;28;20069;-69
2022/02/24 12:34:57;;;;;;;6.88;1.80;;;;;;;;;;5084996;28;20043;-69
2022/02/24 12:37:24;;;;;;;13.35;2.42;;;;;;;;;;5079539;28;20083;-69
2022/02/24 12:39:51;;;;;;;;;;;;;;;;;;5069186;28;20071;-69
2022/02/24 12:42:24;;;;;;;6.68;1.70;;;;;;;;;;5081007;28;19925;-69
2022/02/24 12:44:52;;;;;;;13.40;1.75;;;;;;;;;;5076302;28;20139;-69
2022/02/24 12:47:18;;;;;;;4.78;1.13;;;;;;;;;;5079020;28;20057;-69
2022/02/24 12:49:54;;;;;;;10.00;1.95;;;;;;;;;;5078687;28;20047;-69
2022/02/24 12:52:21;;;;;;;12.00;2.03;;;;;;;;;;5077680;28;20336;-69
2022/02/24 12:54:48;;;;;;;10.57;1.92;;;;;;;;;;5079140;28;20048;-68
2022/02/24 12:57:22;;;;;;;6.50;2.28;;;;;;;;;;5076317;28;20087;-69
2022/02/24 12:59:48;;;;;;;10.25;2.25;;;;;;;;;;5077997;28;20074;-69
2022/02/24 13:02:15;;;;;;;10.02;2.22;;;;;;;;;;5078886;28;20048;-69
2022/02/24 13:04:45;;;;;;;9.98;1.88;;;;;;;;;;5078604;28;20059;-69
2022/02/24 13:09:42;;;;;;;14.32;2.28;;;;;;;;;;5080040;28;20084;-69
2022/02/24 13:10:05;;;;;;;12.93;1.80;;;;;;;;;;5078890;28;20127;-70
2022/02/24 13:12:41;;;;;;;8.55;1.38;;;;;;;;;;5077606;28;20053;-69
2022/02/24 13:15:14;;;;;;;15.90;2.53;;;;;;;;;;5079274;28;20105;-69
2022/02/24 13:17:47;;;;;;;10.13;2.47;;;;;;;;;;5079936;28;20131;-69
2022/02/24 13:20:21;;;;;;;10.15;2.55;;;;;;;;;;5078259;28;20060;-69
2022/02/24 13:22:55;;;;;;;10.43;2.17;;;;;;;;;;5078531;28;20099;-69
2022/02/24 13:25:28;;;;;;;13.77;2.50;;;;;;;;;;5075395;28;20135;-69
2022/02/24 13:27:59;;;;;;;13.25;2.17;;;;;;;;;;5078473;28;20317;-69
2022/02/24 13:30:29;;;;;;;15.60;2.97;;;;;;;;;;5076537;28;20575;-69
2022/02/24 13:33:04;;;;;;;15.65;2.33;;;;;;;;;;5080597;28;20478;-69
2022/02/24 13:35:39;;;;;;;15.30;2.58;;;;;;;;;;5075833;28;20467;-69
2022/02/24 13:38:07;;;;;;;12.18;2.42;;;;;;;;;;5077329;28;20084;-69
2022/02/24 13:40:34;;;;;;;20.92;2.35;;;;;;;;;;5078417;28;20091;-68
2022/02/24 13:43:01;;;;;;;16.02;2.67;;;;;;;;;;5077422;28;20051;-69
2022/02/24 13:45:34;;;;;;;17.42;2.30;;;;;;;;;;5078376;28;20098;-68
2022/02/24 13:48:09;;;;;;;23.35;3.08;;;;;;;;;;5079020;28;20052;-70
2022/02/24 13:50:44;;;;;;;17.05;2.50;;;;;;;;;;5078778;28;20573;-70
2022/02/24 13:53:36;;;;;;;14.82;2.90;;;;;;;;;;5073981;28;20482;-72
2022/02/24 13:56:12;;;;;;;17.50;3.15;;;;;;;;;;5083359;28;20140;-70
2022/02/24 13:58:40;;;;;;;13.60;2.85;;;;;;;;;;5079498;28;20101;-70
2022/02/24 14:01:07;;;;;;;20.55;2.85;;;;;;;;;;5084606;28;20063;-70
2022/02/24 14:03:35;;;;;;;17.85;3.10;;;;;;;;;;5083628;28;20051;-70
2022/02/24 14:06:15;;;;;;;10.70;1.95;;;;;;;;;;5062171;28;20056;-71
2022/02/24 14:08:52;;;;;;;16.70;2.50;;;;;;;;;;5083017;28;20074;-72
2022/02/24 14:11:20;;;;;;;15.48;3.40;;;;;;;;;;5081584;28;20079;-73
2022/02/24 14:13:47;;;;;;;19.65;2.45;;;;;;;;;;5070102;28;20091;-72
2022/02/24 14:16:13;;;;;;;17.90;2.40;;;;;;;;;;5084401;28;20130;-72
2022/02/24 14:18:41;;;;;;;13.53;2.30;;;;;;;;;;5082966;28;20056;-72
2022/02/24 14:21:08;;;;;;;18.13;2.20;;;;;;;;;;5080661;28;20314;-72
2022/02/24 14:23:35;;;;;;;13.50;2.90;;;;;;;;;;5077845;28;20071;-72
2022/02/24 14:26:02;;;;;;;20.30;2.30;;;;;;;;;;5082015;28;20474;-73
2022/02/24 14:28:31;;;;;;;12.00;2.15;;;;;;;;;;5082840;28;20136;-72
2022/02/24 14:30:57;;;;;;;13.70;2.08;;;;;;;;;;5065635;28;20123;-72
2022/02/24 14:33:24;;;;;;;13.40;2.70;;;;;;;;;;5082137;28;20080;-72
2022/02/24 14:35:57;;;;;;;12.75;2.20;;;;;;;;;;5082361;28;20388;-73
2022/02/24 14:38:24;;;;;;;10.27;1.95;;;;;;;;;;5083686;28;20127;-72
2022/02/24 14:40:50;;;;;;;16.95;2.55;;;;;;;;;;5075829;28;20087;-73
2022/02/24 14:43:18;;;;;;;20.23;2.65;;;;;;;;;;5080117;28;20143;-72
2022/02/24 14:45:46;;;;;;;17.50;3.05;;;;;;;;;;5081543;28;20141;-72
2022/02/24 14:48:13;;;;;;;21.95;2.42;;;;;;;;;;5082934;28;20474;-72
2022/02/24 14:50:40;;;;;;;17.20;2.22;;;;;;;;;;5080397;28;20091;-71
2022/02/24 14:53:08;;;;;;;16.90;2.92;;;;;;;;;;5079843;28;20040;-72